createdAt,value
2018-09-24T00:00:30.644Z,2.10
2018-09-24T00:02:58.971Z,1.80
2018-09-24T00:05:27.360Z,1.57
2018-09-24T00:07:55.877Z,2.10
2018-09-24T00:10:24.389Z,1.50
2018-09-24T00:12:52.862Z,1.67
2018-09-24T00:15:21.269Z,1.83
2018-09-24T00:17:49.585Z,1.90
2018-09-24T00:20:18.141Z,1.70
2018-09-24T00:22:46.466Z,2.40
2018-09-24T00:25:15.010Z,1.80
2018-09-24T00:27:43.376Z,2.03
2018-09-24T00:30:12.022Z,1.73
2018-09-24T00:32:40.360Z,1.87
2018-09-24T00:35:08.707Z,1.90
2018-09-24T00:37:37.029Z,1.60
2018-09-24T00:40:05.477Z,2.17
2018-09-24T00:42:35.078Z,2.17
2018-09-24T00:45:03.446Z,1.80
2018-09-24T00:47:31.793Z,2.10
2018-09-24T00:50:00.200Z,2.03
2018-09-24T00:52:28.587Z,1.70
2018-09-24T00:54:56.949Z,2.10
2018-09-24T00:57:25.389Z,2.20
2018-09-24T00:59:53.917Z,2.07
2018-09-24T01:02:22.238Z,1.70
2018-09-24T01:04:50.586Z,2.20
2018-09-24T01:07:18.999Z,1.90
2018-09-24T01:09:47.457Z,2.37
2018-09-24T01:12:15.783Z,2.10
2018-09-24T01:14:44.371Z,2.13
2018-09-24T01:17:12.805Z,1.70
2018-09-24T01:19:41.191Z,2.10
2018-09-24T01:22:09.517Z,2.07
2018-09-24T01:24:37.956Z,2.10
2018-09-24T01:27:06.481Z,2.30
2018-09-24T01:29:35.127Z,1.90
2018-09-24T01:32:03.581Z,1.90
2018-09-24T01:34:31.916Z,1.80
2018-09-24T01:37:00.238Z,2.00
2018-09-24T01:39:28.794Z,1.60
2018-09-24T01:41:57.234Z,1.90
2018-09-24T01:44:25.621Z,2.10
2018-09-24T01:46:53.956Z,1.90
2018-09-24T01:49:22.333Z,2.10
2018-09-24T01:51:50.833Z,1.90
2018-09-24T01:54:19.238Z,2.20
2018-09-24T01:56:47.940Z,1.97
2018-09-24T01:59:16.390Z,2.10
2018-09-24T02:01:46.774Z,2.17
2018-09-24T02:04:15.508Z,2.57
2018-09-24T02:06:43.847Z,2.20
2018-09-24T02:09:12.405Z,2.30
2018-09-24T02:11:40.728Z,2.60
2018-09-24T02:14:09.062Z,2.20
2018-09-24T02:16:37.509Z,2.30
2018-09-24T02:19:05.957Z,2.47
2018-09-24T02:21:34.326Z,2.10
2018-09-24T02:24:05.195Z,3.30
2018-09-24T02:26:33.552Z,2.33
2018-09-24T02:29:02.018Z,2.67
2018-09-24T02:31:34.920Z,2.87
2018-09-24T02:34:03.282Z,3.27
2018-09-24T02:36:31.687Z,2.77
2018-09-24T02:39:00.098Z,2.60
2018-09-24T02:41:28.600Z,3.10
2018-09-24T02:43:56.922Z,2.77
2018-09-24T02:46:25.269Z,3.30
2018-09-24T02:48:53.726Z,3.10
2018-09-24T02:51:22.096Z,3.23
2018-09-24T02:53:50.405Z,2.60
2018-09-24T02:56:18.874Z,3.27
2018-09-24T02:58:47.189Z,3.53
2018-09-24T03:01:15.561Z,3.50
2018-09-24T03:03:43.947Z,3.60
2018-09-24T03:06:12.302Z,3.50
2018-09-24T03:08:41.229Z,3.20
2018-09-24T03:11:09.587Z,2.60
2018-09-24T03:13:37.910Z,3.30
2018-09-24T03:16:06.302Z,3.23
2018-09-24T03:18:34.676Z,3.20
2018-09-24T03:21:03.061Z,2.73
2018-09-24T03:23:31.475Z,3.13
2018-09-24T03:25:59.973Z,3.53
2018-09-24T03:28:28.490Z,3.37
2018-09-24T03:30:59.546Z,3.27
2018-09-24T03:33:28.193Z,3.43
2018-09-24T03:35:56.618Z,3.90
2018-09-24T03:38:25.043Z,3.17
2018-09-24T03:40:53.474Z,3.30
2018-09-24T03:43:21.790Z,3.50
2018-09-24T03:45:50.142Z,3.30
2018-09-24T03:48:18.573Z,3.40
2018-09-24T03:50:46.985Z,3.73
2018-09-24T03:53:15.298Z,3.83
2018-09-24T03:55:43.808Z,3.83
2018-09-24T03:58:12.131Z,3.43
2018-09-24T04:00:40.490Z,3.37
2018-09-24T04:03:08.957Z,3.63
2018-09-24T04:05:42.809Z,4.03
2018-09-24T04:08:16.546Z,4.07
2018-09-24T04:10:50.240Z,3.77
2018-09-24T04:13:23.802Z,4.17
2018-09-24T04:15:57.527Z,3.80
2018-09-24T04:18:31.184Z,4.00
2018-09-24T04:21:04.931Z,4.77
2018-09-24T04:23:38.744Z,3.90
2018-09-24T04:26:12.603Z,3.70
2018-09-24T04:28:46.201Z,4.17
2018-09-24T04:31:20.167Z,4.03
2018-09-24T04:33:53.911Z,4.00
2018-09-24T04:36:27.522Z,4.30
2018-09-24T04:39:01.335Z,3.63
2018-09-24T04:41:35.087Z,4.33
2018-09-24T04:44:08.754Z,3.67
2018-09-24T04:46:42.444Z,4.13
2018-09-24T04:49:16.205Z,4.60
2018-09-24T04:51:49.970Z,4.10
2018-09-24T04:54:23.620Z,4.17
2018-09-24T04:56:57.319Z,4.33
2018-09-24T04:59:30.998Z,3.80
2018-09-24T05:02:04.769Z,3.63
2018-09-24T05:04:38.545Z,4.93
2018-09-24T05:07:12.300Z,4.17
2018-09-24T05:09:45.997Z,4.47
2018-09-24T05:12:19.665Z,4.30
2018-09-24T05:14:53.427Z,4.07
2018-09-24T05:17:27.320Z,4.43
2018-09-24T05:20:01.080Z,4.10
2018-09-24T05:22:34.858Z,4.40
2018-09-24T05:25:08.623Z,4.13
2018-09-24T05:27:42.533Z,4.23
2018-09-24T05:30:16.615Z,4.40
2018-09-24T05:32:50.423Z,4.27
2018-09-24T05:35:24.282Z,4.50
2018-09-24T05:37:58.097Z,4.80
2018-09-24T05:40:31.689Z,4.93
2018-09-24T05:43:05.505Z,4.80
2018-09-24T05:45:39.342Z,5.30
2018-09-24T05:48:13.042Z,5.00
2018-09-24T05:50:46.841Z,5.20
2018-09-24T05:53:20.619Z,5.17
2018-09-24T05:55:54.509Z,4.97
2018-09-24T05:58:28.249Z,6.00
2018-09-24T06:01:01.951Z,5.10
2018-09-24T06:03:35.586Z,5.47
2018-09-24T06:06:09.624Z,5.10
2018-09-24T06:08:43.449Z,5.40
2018-09-24T06:11:17.390Z,5.10
2018-09-24T06:13:51.378Z,4.67
2018-09-24T06:16:25.105Z,4.60
2018-09-24T06:18:58.957Z,4.30
2018-09-24T06:21:32.801Z,4.70
2018-09-24T06:24:06.570Z,4.70
2018-09-24T06:26:44.526Z,5.03
2018-09-24T06:29:18.237Z,4.57
2018-09-24T06:31:52.042Z,4.60
2018-09-24T06:34:25.890Z,4.40
2018-09-24T06:36:59.534Z,3.97
2018-09-24T06:39:33.402Z,4.70
2018-09-24T06:42:07.253Z,4.47
2018-09-24T06:44:40.928Z,4.60
2018-09-24T06:47:14.639Z,4.47
2018-09-24T06:49:49.662Z,5.40
2018-09-24T06:52:23.381Z,4.80
2018-09-24T06:54:57.028Z,4.53
2018-09-24T06:57:30.910Z,4.20
2018-09-24T07:00:04.559Z,4.87
2018-09-24T07:02:38.378Z,4.80
2018-09-24T07:05:12.170Z,4.40
2018-09-24T07:07:45.900Z,4.20
2018-09-24T07:10:19.771Z,4.37
2018-09-24T07:12:53.767Z,4.10
2018-09-24T07:15:27.620Z,5.83
2018-09-24T07:18:01.532Z,4.43
2018-09-24T07:20:35.234Z,3.73
2018-09-24T07:23:09.133Z,4.20
2018-09-24T07:25:42.818Z,3.80
2018-09-24T07:28:16.829Z,3.73
2018-09-24T07:30:50.584Z,3.40
2018-09-24T07:33:24.346Z,4.10
2018-09-24T07:35:58.034Z,3.63
2018-09-24T07:38:31.962Z,3.50
2018-09-24T07:41:05.638Z,3.73
2018-09-24T07:43:39.266Z,3.37
2018-09-24T07:46:13.146Z,3.23
2018-09-24T07:48:46.869Z,3.03
2018-09-24T07:51:20.628Z,3.20
2018-09-24T07:53:54.330Z,2.97
2018-09-24T07:56:28.082Z,3.60
2018-09-24T07:59:01.763Z,3.50
2018-09-24T08:01:35.428Z,3.60
2018-09-24T08:04:09.305Z,2.80
2018-09-24T08:06:43.182Z,2.67
2018-09-24T08:09:16.946Z,3.00
2018-09-24T08:11:50.730Z,3.00
2018-09-24T08:14:24.474Z,2.37
2018-09-24T08:16:58.101Z,2.77
2018-09-24T08:19:31.969Z,2.57
2018-09-24T08:22:05.686Z,2.60
2018-09-24T08:24:39.422Z,2.90
2018-09-24T08:27:13.301Z,2.70
2018-09-24T08:29:47.242Z,3.27
2018-09-24T08:32:20.887Z,2.47
2018-09-24T08:34:54.641Z,2.83
2018-09-24T08:37:28.429Z,3.23
2018-09-24T08:40:02.145Z,2.70
2018-09-24T08:42:35.853Z,2.07
2018-09-24T08:45:09.671Z,2.50
2018-09-24T08:47:43.323Z,2.63
2018-09-24T08:50:17.129Z,2.30
2018-09-24T08:52:50.906Z,2.27
2018-09-24T08:55:24.787Z,2.17
2018-09-24T08:57:58.387Z,2.50
2018-09-24T09:00:32.249Z,2.00
2018-09-24T09:03:05.811Z,2.13
2018-09-24T09:05:39.512Z,1.83
2018-09-24T09:08:13.313Z,2.87
2018-09-24T09:10:47.163Z,1.70
2018-09-24T09:13:20.991Z,1.80
2018-09-24T09:15:54.942Z,2.07
2018-09-24T09:18:28.605Z,1.90
2018-09-24T09:21:02.578Z,1.73
2018-09-24T09:23:36.330Z,1.70
2018-09-24T09:26:10.126Z,2.10
2018-09-24T09:28:43.841Z,1.80
2018-09-24T09:31:17.734Z,1.53
2018-09-24T09:33:51.587Z,1.60
2018-09-24T09:36:25.305Z,2.07
2018-09-24T09:38:58.911Z,1.90
2018-09-24T09:41:32.504Z,1.70
2018-09-24T09:44:06.414Z,1.30
2018-09-24T09:46:40.282Z,1.60
2018-09-24T09:49:14.088Z,2.30
2018-09-24T09:51:47.842Z,2.40
2018-09-24T09:54:21.600Z,1.30
2018-09-24T09:56:55.367Z,1.50
2018-09-24T09:59:29.089Z,2.10
2018-09-24T10:02:02.975Z,1.53
2018-09-24T10:04:37.097Z,1.67
2018-09-24T10:07:10.698Z,1.57
2018-09-24T10:09:44.321Z,1.30
2018-09-24T10:12:18.086Z,1.50
2018-09-24T10:14:51.862Z,1.63
2018-09-24T10:17:25.525Z,1.20
2018-09-24T10:19:59.150Z,1.47
2018-09-24T10:22:33.051Z,1.30
2018-09-24T10:25:06.855Z,1.60
2018-09-24T10:27:40.642Z,1.50
2018-09-24T10:30:14.393Z,1.60
2018-09-24T10:32:48.162Z,1.80
2018-09-24T10:35:21.870Z,1.37
2018-09-24T10:37:55.590Z,1.37
2018-09-24T10:40:29.273Z,1.13
2018-09-24T10:43:03.037Z,1.20
2018-09-24T10:45:36.811Z,1.47
2018-09-24T10:48:10.458Z,1.60
2018-09-24T10:50:44.530Z,1.20
2018-09-24T10:53:18.117Z,1.30
2018-09-24T10:55:51.909Z,1.43
2018-09-24T10:58:25.616Z,1.40
2018-09-24T11:00:59.254Z,1.67
2018-09-24T11:03:32.952Z,1.30
2018-09-24T11:06:06.927Z,1.83
2018-09-24T11:08:40.562Z,1.53
2018-09-24T11:11:14.403Z,1.43
2018-09-24T11:13:48.297Z,1.03
2018-09-24T11:16:22.278Z,1.90
2018-09-24T11:18:56.002Z,1.10
2018-09-24T11:21:29.708Z,1.40
2018-09-24T11:24:03.382Z,1.37
2018-09-24T11:26:37.085Z,1.47
2018-09-24T11:29:10.702Z,1.50
2018-09-24T11:31:44.393Z,1.40
2018-09-24T11:34:18.174Z,1.30
2018-09-24T11:36:52.038Z,1.10
2018-09-24T11:39:25.652Z,1.57
2018-09-24T11:41:59.329Z,1.77
2018-09-24T11:44:32.982Z,1.20
2018-09-24T11:47:06.829Z,1.73
2018-09-24T11:49:40.545Z,1.40
2018-09-24T11:52:14.133Z,1.23
2018-09-24T11:54:47.779Z,1.30
2018-09-24T11:57:21.518Z,1.50
2018-09-24T11:59:55.191Z,1.47
2018-09-24T12:02:28.978Z,1.60
2018-09-24T12:05:02.658Z,1.53
2018-09-24T12:07:36.358Z,1.33
2018-09-24T12:10:10.229Z,1.67
2018-09-24T12:12:44.067Z,1.20
2018-09-24T12:15:17.716Z,1.90
2018-09-24T12:17:51.416Z,1.60
2018-09-24T12:20:25.177Z,1.03
2018-09-24T12:22:58.863Z,1.40
2018-09-24T12:25:32.770Z,1.00
2018-09-24T12:28:06.356Z,1.20
2018-09-24T12:30:39.994Z,1.23
2018-09-24T12:33:13.692Z,1.17
2018-09-24T12:35:47.353Z,1.20
2018-09-24T12:38:21.322Z,1.30
2018-09-24T12:40:55.224Z,1.23
2018-09-24T12:43:29.290Z,1.07
2018-09-24T12:46:03.002Z,1.10
2018-09-24T12:48:36.732Z,1.30
2018-09-24T12:51:10.473Z,1.07
2018-09-24T12:53:44.309Z,1.03
2018-09-24T12:56:18.054Z,2.00
2018-09-24T12:58:51.734Z,1.47
2018-09-24T13:01:25.635Z,1.00
2018-09-24T13:03:59.422Z,1.00
2018-09-24T13:06:33.266Z,1.70
2018-09-24T13:09:06.861Z,1.30
2018-09-24T13:11:40.603Z,1.27
2018-09-24T13:14:14.390Z,1.20
2018-09-24T13:16:48.111Z,1.00
2018-09-24T13:19:21.926Z,1.00
2018-09-24T13:21:55.757Z,1.30
2018-09-24T13:24:29.553Z,1.20
2018-09-24T13:27:03.289Z,1.20
2018-09-24T13:29:37.102Z,1.20
2018-09-24T13:32:10.808Z,1.10
2018-09-24T13:34:44.663Z,2.50
2018-09-24T13:37:18.579Z,1.20
2018-09-24T13:39:52.461Z,1.00
2018-09-24T13:42:26.302Z,1.20
2018-09-24T13:45:00.090Z,1.00
2018-09-24T13:47:33.911Z,1.20
2018-09-24T13:50:07.709Z,1.20
2018-09-24T13:52:41.690Z,1.43
2018-09-24T13:55:15.461Z,1.33
2018-09-24T13:57:49.234Z,1.23
2018-09-24T14:00:23.000Z,1.30
2018-09-24T14:02:56.660Z,1.10
2018-09-24T14:05:30.421Z,0.93
2018-09-24T14:08:04.308Z,1.20
2018-09-24T14:10:37.965Z,1.00
2018-09-24T14:13:11.780Z,1.50
2018-09-24T14:15:45.395Z,1.70
2018-09-24T14:18:19.099Z,1.30
2018-09-24T14:20:52.923Z,1.20
2018-09-24T14:23:26.670Z,1.20
2018-09-24T14:26:00.650Z,1.30
2018-09-24T14:28:34.284Z,1.43
2018-09-24T14:31:08.177Z,1.13
2018-09-24T14:33:41.896Z,1.50
2018-09-24T14:36:15.587Z,1.57
2018-09-24T14:38:49.301Z,1.17
2018-09-24T14:41:23.394Z,1.20
2018-09-24T14:43:57.106Z,1.00
2018-09-24T14:46:30.892Z,1.30
2018-09-24T14:49:04.550Z,1.43
2018-09-24T14:51:38.302Z,1.40
2018-09-24T14:54:11.966Z,1.23
2018-09-24T14:56:45.510Z,1.40
2018-09-24T14:59:19.464Z,0.90
2018-09-24T15:01:53.289Z,1.20
2018-09-24T15:04:26.954Z,1.40
2018-09-24T15:07:00.782Z,1.00
2018-09-24T15:09:34.604Z,0.83
2018-09-24T15:12:08.269Z,1.20
2018-09-24T15:14:42.090Z,1.10
2018-09-24T15:17:15.853Z,1.10
2018-09-24T15:19:49.621Z,1.33
2018-09-24T15:22:23.403Z,1.10
2018-09-24T15:24:57.104Z,1.00
2018-09-24T15:27:31.064Z,1.17
2018-09-24T15:30:04.943Z,1.50
2018-09-24T15:32:38.593Z,1.00
2018-09-24T15:35:12.456Z,1.53
2018-09-24T15:37:46.229Z,1.20
2018-09-24T15:40:20.104Z,1.00
2018-09-24T15:42:53.862Z,2.30
2018-09-24T15:45:27.674Z,0.90
2018-09-24T15:48:01.459Z,1.30
2018-09-24T15:50:35.080Z,0.90
2018-09-24T15:53:08.747Z,1.10
2018-09-24T15:55:42.469Z,0.90
2018-09-24T15:58:16.141Z,1.20
2018-09-24T16:00:50.194Z,0.80
2018-09-24T16:03:23.805Z,1.10
2018-09-24T16:05:57.807Z,1.00
2018-09-24T16:08:31.578Z,1.23
2018-09-24T16:11:05.425Z,1.00
2018-09-24T16:13:39.185Z,1.10
2018-09-24T16:16:14.435Z,1.40
2018-09-24T16:18:48.282Z,1.10
2018-09-24T16:21:22.090Z,1.33
2018-09-24T16:23:55.702Z,1.17
2018-09-24T16:26:29.598Z,2.03
2018-09-24T16:29:03.332Z,1.00
2018-09-24T16:31:37.365Z,1.77
2018-09-24T16:34:11.149Z,1.20
2018-09-24T16:36:44.869Z,1.47
2018-09-24T16:39:18.597Z,1.10
2018-09-24T16:41:52.358Z,1.23
2018-09-24T16:44:26.090Z,1.23
2018-09-24T16:47:00.232Z,1.30
2018-09-24T16:49:34.090Z,1.27
2018-09-24T16:52:07.848Z,1.40
2018-09-24T16:54:41.614Z,1.20
2018-09-24T16:57:15.381Z,1.83
2018-09-24T16:59:49.209Z,1.03
2018-09-24T17:02:23.138Z,1.40
2018-09-24T17:04:56.962Z,2.17
2018-09-24T17:07:30.774Z,1.80
2018-09-24T17:10:04.537Z,1.97
2018-09-24T17:12:38.313Z,1.30
2018-09-24T17:15:12.032Z,1.50
2018-09-24T17:17:45.977Z,1.13
2018-09-24T17:20:19.710Z,1.50
2018-09-24T17:22:53.494Z,1.27
2018-09-24T17:25:27.257Z,2.03
2018-09-24T17:28:01.053Z,2.00
2018-09-24T17:30:34.749Z,1.70
2018-09-24T17:33:11.064Z,1.87
2018-09-24T17:35:44.702Z,1.83
2018-09-24T17:38:18.530Z,1.70
2018-09-24T17:40:52.284Z,1.23
2018-09-24T17:43:26.165Z,1.43
2018-09-24T17:46:00.112Z,1.83
2018-09-24T17:48:33.839Z,1.50
2018-09-24T17:51:07.500Z,1.40
2018-09-24T17:53:41.505Z,1.10
2018-09-24T17:56:15.148Z,1.50
2018-09-24T17:58:48.952Z,1.73
2018-09-24T18:01:22.723Z,1.63
2018-09-24T18:03:56.793Z,1.43
2018-09-24T18:06:30.658Z,2.23
2018-09-24T18:09:04.538Z,1.50
2018-09-24T18:11:38.933Z,1.90
2018-09-24T18:14:13.824Z,4.30
2018-09-24T18:16:48.450Z,2.03
2018-09-24T18:19:22.064Z,1.90
2018-09-24T18:21:55.774Z,2.43
2018-09-24T18:24:29.377Z,1.73
2018-09-24T18:27:03.286Z,1.77
2018-09-24T18:29:37.050Z,1.70
2018-09-24T18:32:10.768Z,1.70
2018-09-24T18:34:44.618Z,1.90
2018-09-24T18:37:18.554Z,1.40
2018-09-24T18:39:52.102Z,1.80
2018-09-24T18:42:25.808Z,1.90
2018-09-24T18:44:59.718Z,1.73
2018-09-24T18:47:33.420Z,1.87
2018-09-24T18:50:07.303Z,1.73
2018-09-24T18:52:41.103Z,2.20
2018-09-24T18:55:14.994Z,2.10
2018-09-24T18:57:48.711Z,1.80
2018-09-24T19:00:22.488Z,2.00
2018-09-24T19:02:56.426Z,1.70
2018-09-24T19:05:30.232Z,3.50
2018-09-24T19:08:04.874Z,5.00
2018-09-24T19:10:38.661Z,1.90
2018-09-24T19:13:12.328Z,2.10
2018-09-24T19:15:46.332Z,2.40
2018-09-24T19:18:20.054Z,2.10
2018-09-24T19:20:53.931Z,2.30
2018-09-24T19:23:27.713Z,2.50
2018-09-24T19:26:01.467Z,2.00
2018-09-24T19:28:35.195Z,2.10
2018-09-24T19:31:09.742Z,2.20
2018-09-24T19:33:43.526Z,2.23
2018-09-24T19:36:17.436Z,2.77
2018-09-24T19:38:51.235Z,2.37
2018-09-24T19:41:24.958Z,2.40
2018-09-24T19:43:58.856Z,2.40
2018-09-24T19:46:32.574Z,2.00
2018-09-24T19:49:06.357Z,2.27
2018-09-24T19:51:40.344Z,3.27
2018-09-24T19:54:14.120Z,2.87
2018-09-24T19:56:47.954Z,2.47
2018-09-24T19:59:21.795Z,5.70
2018-09-24T20:01:55.656Z,4.83
2018-09-24T20:04:29.293Z,4.20
2018-09-24T20:07:03.211Z,3.40
2018-09-24T20:09:36.877Z,2.73
2018-09-24T20:12:10.494Z,2.23
2018-09-24T20:14:51.326Z,2.23
2018-09-24T20:17:25.134Z,2.90
2018-09-24T20:19:58.850Z,2.07
2018-09-24T20:22:32.739Z,2.40
2018-09-24T20:25:06.391Z,2.60
2018-09-24T20:27:40.197Z,1.97
2018-09-24T20:30:14.070Z,2.77
2018-09-24T20:32:47.694Z,2.80
2018-09-24T20:35:21.434Z,2.90
2018-09-24T20:37:55.288Z,2.73
2018-09-24T20:40:28.990Z,2.20
2018-09-24T20:43:02.741Z,3.33
2018-09-24T20:45:36.395Z,2.87
2018-09-24T20:48:10.300Z,2.43
2018-09-24T20:50:43.952Z,2.40
2018-09-24T20:53:17.773Z,2.47
2018-09-24T20:55:51.620Z,3.30
2018-09-24T20:58:25.425Z,2.83
2018-09-24T21:00:59.158Z,2.70
2018-09-24T21:03:32.973Z,2.50
2018-09-24T21:06:06.637Z,3.03
2018-09-24T21:08:40.498Z,2.80
2018-09-24T21:11:14.307Z,2.80
2018-09-24T21:13:48.202Z,3.23
2018-09-24T21:16:21.841Z,3.57
2018-09-24T21:18:57.205Z,2.80
2018-09-24T21:21:30.938Z,3.13
2018-09-24T21:24:04.673Z,2.77
2018-09-24T21:26:38.486Z,2.70
2018-09-24T21:29:12.259Z,3.03
2018-09-24T21:31:45.922Z,2.70
2018-09-24T21:34:19.745Z,3.00
2018-09-24T21:36:53.421Z,2.73
2018-09-24T21:39:27.326Z,2.70
2018-09-24T21:42:01.202Z,3.20
2018-09-24T21:44:35.044Z,2.73
2018-09-24T21:47:08.786Z,2.67
2018-09-24T21:49:42.476Z,3.17
2018-09-24T21:52:16.122Z,3.70
2018-09-24T21:54:49.906Z,2.17
2018-09-24T21:57:23.688Z,2.50
2018-09-24T21:59:57.367Z,2.87
2018-09-24T22:02:31.409Z,3.23
2018-09-24T22:05:05.602Z,2.87
2018-09-24T22:07:39.850Z,2.40
2018-09-24T22:10:14.000Z,2.70
2018-09-24T22:12:48.013Z,3.23
2018-09-24T22:15:22.142Z,2.20
2018-09-24T22:17:56.191Z,2.33
2018-09-24T22:20:30.318Z,2.17
2018-09-24T22:23:04.045Z,2.10
2018-09-24T22:25:37.765Z,2.00
2018-09-24T22:28:11.750Z,1.97
2018-09-24T22:30:45.497Z,2.13
2018-09-24T22:33:19.350Z,2.27
2018-09-24T22:35:53.038Z,2.17
2018-09-24T22:38:26.741Z,1.90
2018-09-24T22:41:00.644Z,2.90
2018-09-24T22:43:34.332Z,1.83
2018-09-24T22:46:08.154Z,2.17
2018-09-24T22:48:41.991Z,1.80
2018-09-24T22:51:15.821Z,1.83
2018-09-24T22:53:49.486Z,1.87
2018-09-24T22:56:23.237Z,1.40
2018-09-24T22:58:56.969Z,2.10
2018-09-24T23:01:30.923Z,1.90
2018-09-24T23:04:04.565Z,1.93
2018-09-24T23:06:38.357Z,1.90
2018-09-24T23:09:13.793Z,1.93
2018-09-24T23:11:47.684Z,2.17
2018-09-24T23:14:21.436Z,1.57
2018-09-24T23:16:55.061Z,2.00
2018-09-24T23:19:28.778Z,2.30
2018-09-24T23:22:02.549Z,2.00
2018-09-24T23:24:36.287Z,1.90
2018-09-24T23:27:09.962Z,2.13
2018-09-24T23:29:43.896Z,2.27
2018-09-24T23:32:17.710Z,2.13
2018-09-24T23:34:51.330Z,2.33
2018-09-24T23:37:25.079Z,1.70
2018-09-24T23:39:58.818Z,3.00
2018-09-24T23:42:32.579Z,2.07
2018-09-24T23:45:06.318Z,2.07
2018-09-24T23:47:40.013Z,1.93
2018-09-24T23:50:13.730Z,1.80
2018-09-24T23:52:47.392Z,2.33
2018-09-24T23:55:21.161Z,2.10
2018-09-24T23:57:55.107Z,1.90
